createdAt,value
2019-01-02T00:00:20.162Z,1025.80
2019-01-02T00:01:20.132Z,1025.82
2019-01-02T00:02:20.101Z,1025.83
2019-01-02T00:03:20.025Z,1025.84
2019-01-02T00:04:20.012Z,1025.84
2019-01-02T00:05:19.929Z,1025.81
2019-01-02T00:06:19.883Z,1025.84
2019-01-02T00:07:19.841Z,1025.82
2019-01-02T00:08:19.828Z,1025.82
2019-01-02T00:09:19.785Z,1025.86
2019-01-02T00:10:19.703Z,1025.85
2019-01-02T00:11:19.696Z,1025.89
2019-01-02T00:12:19.633Z,1025.92
2019-01-02T00:13:19.581Z,1025.93
2019-01-02T00:14:19.568Z,1025.91
2019-01-02T00:15:19.479Z,1025.94
2019-01-02T00:16:28.866Z,1025.94
2019-01-02T00:17:29.881Z,1025.93
2019-01-02T00:18:26.916Z,1025.96
2019-01-02T00:19:28.964Z,1025.95
2019-01-02T00:20:28.513Z,1025.90
2019-01-02T00:21:19.193Z,1025.91
2019-01-02T00:22:28.023Z,1025.98
2019-01-02T00:23:28.490Z,1025.94
2019-01-02T00:24:19.071Z,1025.96
2019-01-02T00:25:19.033Z,1025.93
2019-01-02T00:26:28.028Z,1026.01
2019-01-02T00:27:28.590Z,1025.99
2019-01-02T00:28:18.997Z,1026.02
2019-01-02T00:29:28.059Z,1025.99
2019-01-02T00:30:28.129Z,1026.00
2019-01-02T00:32:58.025Z,1025.99
2019-01-02T00:34:07.172Z,1026.01
2019-01-02T00:35:07.250Z,1026.01
2019-01-02T00:36:06.414Z,1025.94
2019-01-02T00:37:07.258Z,1026.02
2019-01-02T00:37:57.757Z,1025.93
2019-01-02T00:38:57.718Z,1025.97
2019-01-02T00:39:57.678Z,1025.99
2019-01-02T00:41:06.339Z,1025.98
2019-01-02T00:42:06.796Z,1025.98
2019-01-02T00:42:57.509Z,1025.87
2019-01-02T00:43:57.485Z,1025.99
2019-01-02T00:45:06.361Z,1025.99
2019-01-02T00:46:06.854Z,1026.00
2019-01-02T00:47:06.887Z,1026.04
2019-01-02T00:48:06.409Z,1025.98
2019-01-02T00:48:57.270Z,1025.93
2019-01-02T00:49:57.213Z,1026.06
2019-01-02T00:50:57.201Z,1026.04
2019-01-02T00:51:57.136Z,1026.08
2019-01-02T00:52:57.077Z,1026.03
2019-01-02T00:53:57.034Z,1026.07
2019-01-02T00:54:56.966Z,1026.07
2019-01-02T00:55:56.965Z,1026.06
2019-01-02T00:56:56.883Z,1026.01
2019-01-02T00:57:56.857Z,1025.95
2019-01-02T00:59:05.920Z,1025.98
2019-01-02T01:00:05.974Z,1025.99
2019-01-02T01:00:56.705Z,1026.03
2019-01-02T01:01:56.671Z,1026.01
2019-01-02T01:02:56.616Z,1026.06
2019-01-02T01:03:56.562Z,1026.08
2019-01-02T01:04:56.545Z,1026.08
2019-01-02T01:05:56.487Z,1026.08
2019-01-02T01:06:56.474Z,1026.06
2019-01-02T01:08:06.013Z,1026.06
2019-01-02T01:08:56.362Z,1026.05
2019-01-02T01:09:56.324Z,1026.05
2019-01-02T01:10:56.268Z,1026.10
2019-01-02T01:11:56.199Z,1026.13
2019-01-02T01:13:06.007Z,1026.12
2019-01-02T01:13:56.113Z,1026.18
2019-01-02T01:14:56.085Z,1026.19
2019-01-02T01:15:56.027Z,1026.20
2019-01-02T01:16:55.993Z,1026.20
2019-01-02T01:17:55.940Z,1026.19
2019-01-02T01:18:55.916Z,1026.26
2019-01-02T01:19:55.867Z,1026.24
2019-01-02T01:20:55.802Z,1026.32
2019-01-02T01:21:55.785Z,1026.31
2019-01-02T01:22:55.709Z,1026.33
2019-01-02T01:23:55.659Z,1026.25
2019-01-02T01:24:55.640Z,1026.20
2019-01-02T01:25:55.582Z,1026.19
2019-01-02T01:26:55.548Z,1026.23
2019-01-02T01:27:55.478Z,1026.19
2019-01-02T01:28:55.446Z,1026.22
2019-01-02T01:29:55.402Z,1026.27
2019-01-02T01:30:55.348Z,1026.23
2019-01-02T01:31:55.316Z,1026.25
2019-01-02T01:32:55.268Z,1026.35
2019-01-02T01:33:55.208Z,1026.35
2019-01-02T01:34:55.202Z,1026.41
2019-01-02T01:35:55.159Z,1026.38
2019-01-02T01:36:55.076Z,1026.31
2019-01-02T01:37:55.034Z,1026.26
2019-01-02T01:38:54.994Z,1026.34
2019-01-02T01:39:54.949Z,1026.35
2019-01-02T01:40:54.940Z,1026.31
2019-01-02T01:41:54.891Z,1026.29
2019-01-02T01:42:54.817Z,1026.34
2019-01-02T01:43:54.785Z,1026.37
2019-01-02T01:44:54.718Z,1026.28
2019-01-02T01:45:54.697Z,1026.27
2019-01-02T01:46:54.632Z,1026.29
2019-01-02T01:47:54.627Z,1026.28
2019-01-02T01:48:54.563Z,1026.34
2019-01-02T01:49:54.503Z,1026.36
2019-01-02T01:50:54.467Z,1026.32
2019-01-02T01:51:54.418Z,1026.33
2019-01-02T01:52:54.405Z,1026.42
2019-01-02T01:53:54.309Z,1026.41
2019-01-02T01:54:54.277Z,1026.43
2019-01-02T01:55:54.215Z,1026.39
2019-01-02T01:56:54.177Z,1026.44
2019-01-02T01:57:54.167Z,1026.49
2019-01-02T01:58:54.104Z,1026.50
2019-01-02T01:59:54.042Z,1026.52
2019-01-02T02:00:54.106Z,1026.53
2019-01-02T02:01:54.468Z,1026.54
2019-01-02T02:02:54.081Z,1026.55
2019-01-02T02:03:53.937Z,1026.55
2019-01-02T02:04:53.861Z,1026.56
2019-01-02T02:05:53.834Z,1026.54
2019-01-02T02:06:53.738Z,1026.52
2019-01-02T02:07:53.721Z,1026.55
2019-01-02T02:08:53.657Z,1026.53
2019-01-02T02:09:53.607Z,1026.53
2019-01-02T02:10:53.559Z,1026.56
2019-01-02T02:11:53.568Z,1026.56
2019-01-02T02:12:53.488Z,1026.54
2019-01-02T02:13:53.458Z,1026.53
2019-01-02T02:14:53.416Z,1026.58
2019-01-02T02:15:53.336Z,1026.61
2019-01-02T02:16:53.302Z,1026.65
2019-01-02T02:17:53.233Z,1026.63
2019-01-02T02:18:53.197Z,1026.67
2019-01-02T02:19:53.205Z,1026.66
2019-01-02T02:20:53.127Z,1026.67
2019-01-02T02:21:53.085Z,1026.67
2019-01-02T02:22:53.023Z,1026.63
2019-01-02T02:23:53.027Z,1026.66
2019-01-02T02:24:52.948Z,1026.64
2019-01-02T02:25:52.869Z,1026.66
2019-01-02T02:26:52.834Z,1026.68
2019-01-02T02:27:52.847Z,1026.71
2019-01-02T02:28:52.742Z,1026.75
2019-01-02T02:29:52.700Z,1026.79
2019-01-02T02:30:52.673Z,1026.79
2019-01-02T02:31:52.706Z,1026.79
2019-01-02T02:32:52.599Z,1026.77
2019-01-02T02:33:52.583Z,1026.74
2019-01-02T02:34:52.492Z,1026.79
2019-01-02T02:35:52.448Z,1026.82
2019-01-02T02:36:52.417Z,1026.82
2019-01-02T02:37:52.429Z,1026.84
2019-01-02T02:38:52.322Z,1026.77
2019-01-02T02:39:52.298Z,1026.77
2019-01-02T02:40:52.214Z,1026.73
2019-01-02T02:41:52.180Z,1026.73
2019-01-02T02:42:52.163Z,1026.75
2019-01-02T02:43:52.136Z,1026.80
2019-01-02T02:44:52.057Z,1026.76
2019-01-02T02:45:52.029Z,1026.71
2019-01-02T02:46:51.987Z,1026.77
2019-01-02T02:47:51.906Z,1026.77
2019-01-02T02:48:51.876Z,1026.79
2019-01-02T02:49:51.849Z,1026.77
2019-01-02T02:50:51.784Z,1026.80
2019-01-02T02:51:51.731Z,1026.76
2019-01-02T02:52:51.689Z,1026.71
2019-01-02T02:53:51.650Z,1026.67
2019-01-02T02:54:51.619Z,1026.68
2019-01-02T02:55:51.574Z,1026.67
2019-01-02T02:56:51.513Z,1026.65
2019-01-02T02:57:51.467Z,1026.66
2019-01-02T02:58:51.455Z,1026.68
2019-01-02T02:59:51.384Z,1026.63
2019-01-02T03:00:51.345Z,1026.67
2019-01-02T03:01:51.293Z,1026.70
2019-01-02T03:02:51.249Z,1026.66
2019-01-02T03:03:51.215Z,1026.61
2019-01-02T03:04:51.194Z,1026.57
2019-01-02T03:05:51.127Z,1026.56
2019-01-02T03:06:51.061Z,1026.64
2019-01-02T03:07:51.036Z,1026.61
2019-01-02T03:08:51.013Z,1026.60
2019-01-02T03:09:50.962Z,1026.58
2019-01-02T03:10:50.894Z,1026.61
2019-01-02T03:11:50.862Z,1026.60
2019-01-02T03:12:50.802Z,1026.60
2019-01-02T03:13:50.734Z,1026.60
2019-01-02T03:14:50.749Z,1026.62
2019-01-02T03:15:50.659Z,1026.61
2019-01-02T03:16:50.622Z,1026.57
2019-01-02T03:17:50.558Z,1026.60
2019-01-02T03:18:50.553Z,1026.62
2019-01-02T03:19:50.470Z,1026.61
2019-01-02T03:20:50.470Z,1026.65
2019-01-02T03:21:50.385Z,1026.64
2019-01-02T03:22:50.345Z,1026.64
2019-01-02T03:23:50.300Z,1026.62
2019-01-02T03:24:50.276Z,1026.63
2019-01-02T03:25:50.226Z,1026.65
2019-01-02T03:26:50.212Z,1026.65
2019-01-02T03:27:50.123Z,1026.71
2019-01-02T03:28:50.055Z,1026.66
2019-01-02T03:29:50.051Z,1026.68
2019-01-02T03:30:50.013Z,1026.66
2019-01-02T03:31:49.935Z,1026.67
2019-01-02T03:32:49.908Z,1026.62
2019-01-02T03:33:49.851Z,1026.61
2019-01-02T03:34:49.801Z,1026.62
2019-01-02T03:35:49.794Z,1026.59
2019-01-02T03:36:49.728Z,1026.61
2019-01-02T03:37:49.659Z,1026.65
2019-01-02T03:38:49.606Z,1026.67
2019-01-02T03:39:49.577Z,1026.67
2019-01-02T03:40:49.597Z,1026.72
2019-01-02T03:41:49.483Z,1026.70
2019-01-02T03:42:49.437Z,1026.69
2019-01-02T03:43:49.399Z,1026.72
2019-01-02T03:44:49.350Z,1026.69
2019-01-02T03:45:49.305Z,1026.70
2019-01-02T03:46:49.291Z,1026.74
2019-01-02T03:47:49.223Z,1026.68
2019-01-02T03:48:49.203Z,1026.68
2019-01-02T03:49:49.125Z,1026.75
2019-01-02T03:50:49.060Z,1026.75
2019-01-02T03:51:49.046Z,1026.75
2019-01-02T03:52:57.688Z,1026.77
2019-01-02T03:53:48.932Z,1026.71
2019-01-02T03:54:48.919Z,1026.69
2019-01-02T03:55:48.822Z,1026.77
2019-01-02T03:56:48.806Z,1026.76
2019-01-02T03:57:48.797Z,1026.74
2019-01-02T03:58:48.790Z,1026.79
2019-01-02T03:59:48.673Z,1026.84
2019-01-02T04:00:48.612Z,1026.85
2019-01-02T04:01:48.569Z,1026.84
2019-01-02T04:02:48.587Z,1026.81
2019-01-02T04:03:48.564Z,1026.76
2019-01-02T04:04:48.482Z,1026.74
2019-01-02T04:05:48.406Z,1026.79
2019-01-02T04:06:48.355Z,1026.77
2019-01-02T04:07:48.318Z,1026.76
2019-01-02T04:08:48.287Z,1026.80
2019-01-02T04:09:48.236Z,1026.79
2019-01-02T04:10:48.190Z,1026.77
2019-01-02T04:11:48.127Z,1026.75
2019-01-02T04:12:48.136Z,1026.73
2019-01-02T04:13:48.032Z,1026.75
2019-01-02T04:14:48.043Z,1026.78
2019-01-02T04:15:47.974Z,1026.71
2019-01-02T04:16:47.901Z,1026.76
2019-01-02T04:17:47.866Z,1026.73
2019-01-02T04:18:47.871Z,1026.69
2019-01-02T04:19:47.792Z,1026.75
2019-01-02T04:20:47.772Z,1026.76
2019-01-02T04:21:47.687Z,1026.75
2019-01-02T04:22:47.642Z,1026.75
2019-01-02T04:23:47.586Z,1026.71
2019-01-02T04:24:47.586Z,1026.75
2019-01-02T04:25:47.502Z,1026.75
2019-01-02T04:26:47.450Z,1026.77
2019-01-02T04:27:47.417Z,1026.76
2019-01-02T04:28:47.395Z,1026.73
2019-01-02T04:29:47.331Z,1026.73
2019-01-02T04:30:47.275Z,1026.71
2019-01-02T04:31:47.228Z,1026.70
2019-01-02T04:32:47.184Z,1026.74
2019-01-02T04:33:47.184Z,1026.82
2019-01-02T04:34:47.102Z,1026.84
2019-01-02T04:35:47.050Z,1026.84
2019-01-02T04:36:47.011Z,1026.88
2019-01-02T04:37:46.950Z,1026.87
2019-01-02T04:38:46.925Z,1026.87
2019-01-02T04:39:46.902Z,1026.86
2019-01-02T04:40:46.853Z,1026.78
2019-01-02T04:41:46.791Z,1026.78
2019-01-02T04:42:46.744Z,1026.80
2019-01-02T04:43:46.700Z,1026.74
2019-01-02T04:44:46.632Z,1026.82
2019-01-02T04:45:46.636Z,1026.78
2019-01-02T04:46:46.548Z,1026.77
2019-01-02T04:47:46.528Z,1026.76
2019-01-02T04:48:46.462Z,1026.72
2019-01-02T04:49:46.446Z,1026.75
2019-01-02T04:50:46.384Z,1026.77
2019-01-02T04:51:46.357Z,1026.81
2019-01-02T04:52:46.314Z,1026.78
2019-01-02T04:53:46.236Z,1026.82
2019-01-02T04:54:46.199Z,1026.76
2019-01-02T04:55:46.196Z,1026.80
2019-01-02T04:56:46.107Z,1026.81
2019-01-02T04:57:46.093Z,1026.73
2019-01-02T04:58:46.033Z,1026.75
2019-01-02T04:59:45.992Z,1026.78
2019-01-02T05:00:45.996Z,1026.76
2019-01-02T05:01:45.939Z,1026.80
2019-01-02T05:02:45.875Z,1026.80
2019-01-02T05:03:45.845Z,1026.78
2019-01-02T05:04:45.769Z,1026.86
2019-01-02T05:05:45.742Z,1026.84
2019-01-02T05:06:45.694Z,1026.90
2019-01-02T05:07:45.664Z,1026.83
2019-01-02T05:08:45.593Z,1026.85
2019-01-02T05:09:45.539Z,1026.90
2019-01-02T05:10:45.496Z,1026.89
2019-01-02T05:11:45.467Z,1026.91
2019-01-02T05:12:45.481Z,1026.91
2019-01-02T05:13:45.363Z,1026.92
2019-01-02T05:14:45.353Z,1026.96
2019-01-02T05:15:45.287Z,1026.90
2019-01-02T05:16:45.230Z,1026.96
2019-01-02T05:17:45.211Z,1026.97
2019-01-02T05:18:45.208Z,1026.97
2019-01-02T05:19:45.077Z,1027.00
2019-01-02T05:20:45.039Z,1026.98
2019-01-02T05:21:45.026Z,1026.98
2019-01-02T05:22:44.971Z,1026.93
2019-01-02T05:23:44.911Z,1026.92
2019-01-02T05:24:44.870Z,1027.00
2019-01-02T05:25:44.810Z,1027.01
2019-01-02T05:26:44.800Z,1027.03
2019-01-02T05:27:44.709Z,1027.00
2019-01-02T05:28:44.725Z,1027.12
2019-01-02T05:29:44.688Z,1027.09
2019-01-02T05:30:44.587Z,1027.09
2019-01-02T05:31:44.549Z,1027.06
2019-01-02T05:32:44.502Z,1027.07
2019-01-02T05:33:44.472Z,1027.09
2019-01-02T05:34:44.443Z,1027.07
2019-01-02T05:35:44.349Z,1027.11
2019-01-02T05:36:44.356Z,1027.14
2019-01-02T05:37:44.287Z,1027.14
2019-01-02T05:38:44.244Z,1027.13
2019-01-02T05:39:44.190Z,1027.16
2019-01-02T05:40:44.172Z,1027.15
2019-01-02T05:41:44.097Z,1027.14
2019-01-02T05:42:44.068Z,1027.09
2019-01-02T05:43:44.009Z,1027.12
2019-01-02T05:44:44.000Z,1027.14
2019-01-02T05:45:43.957Z,1027.19
2019-01-02T05:46:43.910Z,1027.21
2019-01-02T05:47:43.805Z,1027.22
2019-01-02T05:48:43.773Z,1027.21
2019-01-02T05:49:43.741Z,1027.22
2019-01-02T05:50:43.686Z,1027.21
2019-01-02T05:51:43.675Z,1027.19
2019-01-02T05:52:43.599Z,1027.19
2019-01-02T05:53:43.553Z,1027.15
2019-01-02T05:54:43.534Z,1027.21
2019-01-02T05:55:43.458Z,1027.15
2019-01-02T05:56:43.421Z,1027.20
2019-01-02T05:57:43.393Z,1027.29
2019-01-02T05:58:43.341Z,1027.31
2019-01-02T05:59:43.280Z,1027.35
2019-01-02T06:00:43.282Z,1027.34
2019-01-02T06:01:43.215Z,1027.27
2019-01-02T06:02:43.200Z,1027.33
2019-01-02T06:03:53.629Z,1027.29
2019-01-02T06:04:52.154Z,1027.32
2019-01-02T06:05:43.005Z,1027.31
2019-01-02T06:06:43.006Z,1027.34
2019-01-02T06:07:42.933Z,1027.33
2019-01-02T06:08:42.885Z,1027.42
2019-01-02T06:09:42.840Z,1027.40
2019-01-02T06:10:42.795Z,1027.39
2019-01-02T06:11:42.771Z,1027.39
2019-01-02T06:12:42.731Z,1027.43
2019-01-02T06:13:42.696Z,1027.43
2019-01-02T06:14:42.650Z,1027.45
2019-01-02T06:15:42.567Z,1027.47
2019-01-02T06:16:42.521Z,1027.47
2019-01-02T06:17:42.497Z,1027.49
2019-01-02T06:18:42.434Z,1027.53
2019-01-02T06:19:42.471Z,1027.51
2019-01-02T06:20:42.334Z,1027.48
2019-01-02T06:21:42.292Z,1027.52
2019-01-02T06:22:42.264Z,1027.53
2019-01-02T06:23:42.215Z,1027.49
2019-01-02T06:24:42.170Z,1027.47
2019-01-02T06:25:42.139Z,1027.45
2019-01-02T06:26:42.067Z,1027.41
2019-01-02T06:27:42.046Z,1027.49
2019-01-02T06:28:41.988Z,1027.44
2019-01-02T06:29:41.945Z,1027.42
2019-01-02T06:30:41.893Z,1027.49
2019-01-02T06:31:41.884Z,1027.50
2019-01-02T06:32:41.805Z,1027.56
2019-01-02T06:33:41.765Z,1027.52
2019-01-02T06:34:41.693Z,1027.57
2019-01-02T06:35:41.723Z,1027.53
2019-01-02T06:36:41.647Z,1027.57
2019-01-02T06:37:41.584Z,1027.57
2019-01-02T06:38:41.550Z,1027.55
2019-01-02T06:39:41.506Z,1027.57
2019-01-02T06:40:41.448Z,1027.60
2019-01-02T06:41:41.417Z,1027.65
2019-01-02T06:42:41.377Z,1027.66
2019-01-02T06:43:41.306Z,1027.62
2019-01-02T06:44:41.253Z,1027.63
2019-01-02T06:45:41.222Z,1027.65
2019-01-02T06:46:41.204Z,1027.64
2019-01-02T06:47:41.133Z,1027.62
2019-01-02T06:48:41.063Z,1027.64
2019-01-02T06:49:41.020Z,1027.63
2019-01-02T06:50:40.987Z,1027.65
2019-01-02T06:51:40.974Z,1027.72
2019-01-02T06:52:40.935Z,1027.71
2019-01-02T06:53:40.829Z,1027.65
2019-01-02T06:54:40.832Z,1027.67
2019-01-02T06:55:40.779Z,1027.66
2019-01-02T06:56:40.732Z,1027.67
2019-01-02T06:57:40.685Z,1027.68
2019-01-02T06:58:40.661Z,1027.66
2019-01-02T06:59:40.587Z,1027.70
2019-01-02T07:00:40.531Z,1027.73
2019-01-02T07:01:40.492Z,1027.75
2019-01-02T07:02:40.463Z,1027.78
2019-01-02T07:03:40.414Z,1027.83
2019-01-02T07:04:40.408Z,1027.82
2019-01-02T07:05:40.308Z,1027.80
2019-01-02T07:06:40.252Z,1027.87
2019-01-02T07:07:40.242Z,1027.85
2019-01-02T07:08:40.179Z,1027.85
2019-01-02T07:09:40.134Z,1027.83
2019-01-02T07:10:40.105Z,1027.83
2019-01-02T07:11:40.031Z,1027.90
2019-01-02T07:12:39.998Z,1027.93
2019-01-02T07:13:39.962Z,1027.93
2019-01-02T07:14:39.951Z,1028.01
2019-01-02T07:15:39.857Z,1027.99
2019-01-02T07:16:39.825Z,1028.03
2019-01-02T07:17:39.794Z,1028.04
2019-01-02T07:18:39.752Z,1028.08
2019-01-02T07:19:39.713Z,1028.09
2019-01-02T07:20:39.647Z,1028.16
2019-01-02T07:21:39.681Z,1028.14
2019-01-02T07:22:39.582Z,1028.13
2019-01-02T07:23:39.592Z,1028.10
2019-01-02T07:24:39.553Z,1028.14
2019-01-02T07:25:39.456Z,1028.15
2019-01-02T07:26:39.392Z,1028.14
2019-01-02T07:27:39.374Z,1028.05
2019-01-02T07:28:39.265Z,1028.07
2019-01-02T07:29:39.305Z,1028.08
2019-01-02T07:30:39.192Z,1028.08
2019-01-02T07:31:39.146Z,1028.08
2019-01-02T07:32:39.086Z,1028.11
2019-01-02T07:33:39.043Z,1028.16
2019-01-02T07:34:39.036Z,1028.18
2019-01-02T07:35:39.002Z,1028.22
2019-01-02T07:36:38.924Z,1028.21
2019-01-02T07:37:38.862Z,1028.25
2019-01-02T07:38:38.912Z,1028.22
2019-01-02T07:39:38.833Z,1028.23
2019-01-02T07:40:38.768Z,1028.21
2019-01-02T07:41:38.690Z,1028.24
2019-01-02T07:42:38.674Z,1028.24
2019-01-02T07:43:38.598Z,1028.22
2019-01-02T07:44:38.543Z,1028.30
2019-01-02T07:45:38.551Z,1028.27
2019-01-02T07:46:38.507Z,1028.27
2019-01-02T07:47:38.416Z,1028.29
2019-01-02T07:48:38.379Z,1028.30
2019-01-02T07:49:38.336Z,1028.35
2019-01-02T07:50:38.297Z,1028.35
2019-01-02T07:51:38.262Z,1028.35
2019-01-02T07:52:38.209Z,1028.41
2019-01-02T07:53:38.143Z,1028.38
2019-01-02T07:54:38.118Z,1028.44
2019-01-02T07:55:38.061Z,1028.49
2019-01-02T07:56:38.055Z,1028.44
2019-01-02T07:57:37.959Z,1028.46
2019-01-02T07:58:37.929Z,1028.48
2019-01-02T07:59:37.934Z,1028.42
2019-01-02T08:00:37.852Z,1028.42
2019-01-02T08:01:37.790Z,1028.46
2019-01-02T08:02:37.794Z,1028.52
2019-01-02T08:03:37.718Z,1028.45
2019-01-02T08:04:37.669Z,1028.46
2019-01-02T08:05:37.621Z,1028.50
2019-01-02T08:06:37.562Z,1028.49
2019-01-02T08:07:37.535Z,1028.45
2019-01-02T08:08:37.489Z,1028.52
2019-01-02T08:09:37.463Z,1028.57
2019-01-02T08:10:37.391Z,1028.59
2019-01-02T08:11:37.360Z,1028.59
2019-01-02T08:12:37.308Z,1028.67
2019-01-02T08:13:37.258Z,1028.66
2019-01-02T08:14:37.230Z,1028.70
2019-01-02T08:15:37.160Z,1028.67
2019-01-02T08:16:37.139Z,1028.66
2019-01-02T08:17:37.070Z,1028.66
2019-01-02T08:18:37.069Z,1028.70
2019-01-02T08:19:37.036Z,1028.67
2019-01-02T08:20:36.958Z,1028.70
2019-01-02T08:21:36.893Z,1028.69
2019-01-02T08:22:36.863Z,1028.63
2019-01-02T08:23:36.808Z,1028.67
2019-01-02T08:24:36.768Z,1028.68
2019-01-02T08:25:36.772Z,1028.60
2019-01-02T08:26:36.685Z,1028.67
2019-01-02T08:27:36.614Z,1028.63
2019-01-02T08:28:36.613Z,1028.66
2019-01-02T08:29:36.556Z,1028.67
2019-01-02T08:30:36.521Z,1028.72
2019-01-02T08:31:36.456Z,1028.67
2019-01-02T08:32:36.414Z,1028.69
2019-01-02T08:33:36.404Z,1028.68
2019-01-02T08:34:36.312Z,1028.71
2019-01-02T08:35:36.297Z,1028.75
2019-01-02T08:36:36.262Z,1028.75
2019-01-02T08:37:36.167Z,1028.77
2019-01-02T08:38:36.129Z,1028.80
2019-01-02T08:39:36.127Z,1028.77
2019-01-02T08:40:36.078Z,1028.75
2019-01-02T08:41:36.130Z,1028.73
2019-01-02T08:42:35.955Z,1028.79
2019-01-02T08:43:35.987Z,1028.80
2019-01-02T08:44:35.891Z,1028.78
2019-01-02T08:45:35.856Z,1028.89
2019-01-02T08:46:35.892Z,1028.86
2019-01-02T08:47:35.857Z,1028.94
2019-01-02T08:48:35.795Z,1028.93
2019-01-02T08:49:35.717Z,1028.99
2019-01-02T08:50:35.699Z,1028.83
2019-01-02T08:51:35.595Z,1028.93
2019-01-02T08:52:35.529Z,1028.88
2019-01-02T08:53:35.474Z,1028.90
2019-01-02T08:54:35.439Z,1028.92
2019-01-02T08:55:35.382Z,1028.90
2019-01-02T08:56:35.351Z,1028.95
2019-01-02T08:57:35.323Z,1028.97
2019-01-02T08:58:35.322Z,1029.02
2019-01-02T08:59:35.241Z,1029.02
2019-01-02T09:00:35.205Z,1029.01
2019-01-02T09:01:35.149Z,1029.03
2019-01-02T09:02:35.335Z,1029.05
2019-01-02T09:03:35.070Z,1029.06
2019-01-02T09:04:35.037Z,1029.08
2019-01-02T09:05:35.026Z,1029.03
2019-01-02T09:06:34.931Z,1029.04
2019-01-02T09:07:34.865Z,1029.08
2019-01-02T09:08:34.862Z,1029.07
2019-01-02T09:09:34.782Z,1029.07
2019-01-02T09:10:34.742Z,1029.05
2019-01-02T09:11:34.710Z,1029.08
2019-01-02T09:12:34.660Z,1029.02
2019-01-02T09:13:34.610Z,1029.08
2019-01-02T09:14:34.602Z,1029.08
2019-01-02T09:15:34.512Z,1029.10
2019-01-02T09:16:34.480Z,1029.09
2019-01-02T09:17:34.453Z,1029.11
2019-01-02T09:18:34.402Z,1029.16
2019-01-02T09:19:34.325Z,1029.14
2019-01-02T09:20:34.335Z,1029.20
2019-01-02T09:21:34.240Z,1029.23
2019-01-02T09:22:34.193Z,1029.28
2019-01-02T09:23:34.149Z,1029.26
2019-01-02T09:24:34.124Z,1029.32
2019-01-02T09:25:34.107Z,1029.35
2019-01-02T09:26:34.038Z,1029.31
2019-01-02T09:27:33.969Z,1029.34
2019-01-02T09:28:33.937Z,1029.33
2019-01-02T09:29:33.887Z,1029.34
2019-01-02T09:30:33.935Z,1029.33
2019-01-02T09:31:33.843Z,1029.34
2019-01-02T09:32:33.780Z,1029.37
2019-01-02T09:33:33.703Z,1029.38
2019-01-02T09:34:33.676Z,1029.39
2019-01-02T09:35:33.625Z,1029.36
2019-01-02T09:36:33.692Z,1029.43
2019-01-02T09:37:33.563Z,1029.41
2019-01-02T09:38:33.489Z,1029.42
2019-01-02T09:39:33.441Z,1029.49
2019-01-02T09:40:33.418Z,1029.50
2019-01-02T09:41:33.345Z,1029.51
2019-01-02T09:42:33.338Z,1029.53
2019-01-02T09:43:33.266Z,1029.54
2019-01-02T09:44:33.244Z,1029.59
2019-01-02T09:45:33.170Z,1029.62
2019-01-02T09:46:33.221Z,1029.60
2019-01-02T09:47:33.127Z,1029.62
2019-01-02T09:48:33.084Z,1029.58
2019-01-02T09:49:33.036Z,1029.58
2019-01-02T09:50:33.003Z,1029.56
2019-01-02T09:51:32.932Z,1029.55
2019-01-02T09:52:32.960Z,1029.64
2019-01-02T09:53:32.871Z,1029.55
2019-01-02T09:54:32.889Z,1029.64
2019-01-02T09:55:32.792Z,1029.63
2019-01-02T09:56:32.936Z,1029.64
2019-01-02T09:57:32.659Z,1029.66
2019-01-02T09:58:32.646Z,1029.78
2019-01-02T09:59:32.593Z,1029.76
2019-01-02T10:00:32.583Z,1029.74
2019-01-02T10:01:32.537Z,1029.68
2019-01-02T10:02:32.523Z,1029.65
2019-01-02T10:03:32.482Z,1029.62
2019-01-02T10:04:32.551Z,1029.58
2019-01-02T10:05:32.324Z,1029.54
2019-01-02T10:06:32.369Z,1029.55
2019-01-02T10:07:33.079Z,1029.63
2019-01-02T10:08:32.209Z,1029.64
2019-01-02T10:09:32.181Z,1029.62
2019-01-02T10:10:32.104Z,1029.66
2019-01-02T10:11:32.126Z,1029.73
2019-01-02T10:12:32.042Z,1029.79
2019-01-02T10:13:31.990Z,1029.73
2019-01-02T10:14:31.979Z,1029.71
2019-01-02T10:15:31.906Z,1029.76
2019-01-02T10:16:31.904Z,1029.69
2019-01-02T10:17:31.817Z,1029.67
2019-01-02T10:18:31.789Z,1029.65
2019-01-02T10:19:31.757Z,1029.65
2019-01-02T10:20:31.733Z,1029.73
2019-01-02T10:21:31.633Z,1029.66
2019-01-02T10:22:31.622Z,1029.71
2019-01-02T10:23:31.564Z,1029.63
2019-01-02T10:24:31.581Z,1029.62
2019-01-02T10:25:31.484Z,1029.58
2019-01-02T10:26:31.420Z,1029.63
2019-01-02T10:27:31.391Z,1029.53
2019-01-02T10:28:31.370Z,1029.53
2019-01-02T10:29:31.353Z,1029.57
2019-01-02T10:30:31.314Z,1029.51
2019-01-02T10:31:31.219Z,1029.60
2019-01-02T10:32:31.212Z,1029.58
2019-01-02T10:33:31.154Z,1029.50
2019-01-02T10:34:31.120Z,1029.50
2019-01-02T10:35:31.105Z,1029.54
2019-01-02T10:36:31.023Z,1029.60
2019-01-02T10:37:31.000Z,1029.54
2019-01-02T10:38:30.973Z,1029.52
2019-01-02T10:39:30.896Z,1029.57
2019-01-02T10:40:30.842Z,1029.54
2019-01-02T10:41:30.820Z,1029.55
2019-01-02T10:42:30.769Z,1029.54
2019-01-02T10:43:30.707Z,1029.53
2019-01-02T10:44:30.770Z,1029.52
2019-01-02T10:45:30.658Z,1029.50
2019-01-02T10:46:30.610Z,1029.53
2019-01-02T10:47:30.579Z,1029.49
2019-01-02T10:48:30.585Z,1029.47
2019-01-02T10:49:30.500Z,1029.50
2019-01-02T10:50:30.421Z,1029.54
2019-01-02T10:51:30.378Z,1029.51
2019-01-02T10:52:30.355Z,1029.48
2019-01-02T10:53:30.287Z,1029.53
2019-01-02T10:54:30.243Z,1029.53
2019-01-02T10:55:30.211Z,1029.55
2019-01-02T10:56:30.200Z,1029.64
2019-01-02T10:57:30.137Z,1029.60
2019-01-02T10:58:36.425Z,1029.53
2019-01-02T10:59:30.049Z,1029.50
2019-01-02T11:00:29.981Z,1029.54
2019-01-02T11:01:29.995Z,1029.47
2019-01-02T11:02:29.948Z,1029.49
2019-01-02T11:03:29.891Z,1029.49
2019-01-02T11:04:29.865Z,1029.47
2019-01-02T11:05:29.889Z,1029.54
2019-01-02T11:06:31.154Z,1029.51
2019-01-02T11:07:29.776Z,1029.55
2019-01-02T11:08:29.633Z,1029.57
2019-01-02T11:09:29.610Z,1029.55
2019-01-02T11:10:29.544Z,1029.49
2019-01-02T11:11:29.592Z,1029.56
2019-01-02T11:12:29.602Z,1029.62
2019-01-02T11:13:29.499Z,1029.61
2019-01-02T11:14:29.560Z,1029.61
2019-01-02T11:15:29.431Z,1029.63
2019-01-02T11:16:29.674Z,1029.59
2019-01-02T11:17:29.557Z,1029.65
2019-01-02T11:18:29.249Z,1029.63
2019-01-02T11:19:29.231Z,1029.59
2019-01-02T11:20:29.195Z,1029.64
2019-01-02T11:21:29.428Z,1029.59
2019-01-02T11:22:29.289Z,1029.64
2019-01-02T11:23:29.097Z,1029.60
2019-01-02T11:24:29.310Z,1029.71
2019-01-02T11:25:29.030Z,1029.72
2019-01-02T11:26:29.147Z,1029.69
2019-01-02T11:27:28.919Z,1029.65
2019-01-02T11:28:29.092Z,1029.62
2019-01-02T11:29:28.849Z,1029.61
2019-01-02T11:30:28.881Z,1029.62
2019-01-02T11:31:29.010Z,1029.65
2019-01-02T11:32:28.989Z,1029.73
2019-01-02T11:33:28.747Z,1029.68
2019-01-02T11:34:28.665Z,1029.66
2019-01-02T11:35:28.571Z,1029.70
2019-01-02T11:36:28.639Z,1029.68
2019-01-02T11:37:28.402Z,1029.64
2019-01-02T11:38:28.571Z,1029.67
2019-01-02T11:39:28.349Z,1029.73
2019-01-02T11:40:28.348Z,1029.69
2019-01-02T11:41:28.272Z,1029.65
2019-01-02T11:42:28.263Z,1029.65
2019-01-02T11:43:28.224Z,1029.66
2019-01-02T11:44:28.271Z,1029.66
2019-01-02T11:45:28.256Z,1029.63
2019-01-02T11:46:28.120Z,1029.68
2019-01-02T11:47:28.063Z,1029.63
2019-01-02T11:48:28.165Z,1029.62
2019-01-02T11:49:28.005Z,1029.64
2019-01-02T11:50:27.976Z,1029.71
2019-01-02T11:51:27.938Z,1029.72
2019-01-02T11:52:27.773Z,1029.67
2019-01-02T11:53:27.727Z,1029.74
2019-01-02T11:54:27.741Z,1029.65
2019-01-02T11:55:27.653Z,1029.71
2019-01-02T11:56:27.641Z,1029.64
2019-01-02T11:57:27.565Z,1029.63
2019-01-02T11:58:27.584Z,1029.64
2019-01-02T11:59:27.490Z,1029.69
2019-01-02T12:00:27.428Z,1029.72
2019-01-02T12:01:27.445Z,1029.68
2019-01-02T12:02:27.361Z,1029.64
2019-01-02T12:03:27.348Z,1029.57
2019-01-02T12:04:27.330Z,1029.61
2019-01-02T12:05:27.252Z,1029.53
2019-01-02T12:06:27.196Z,1029.57